Captain D — WDH2354 — position and weather

sailwx.info

Track history (hours):
 
Tides and Currents Weather Stations Pressure Air Temp Water Temp Dewpoint Dewpoint Depression Visibility Wind Speed Wind Dir Waves Ship Positions

Captain D

Owner: Gilmerton Tugs LLC/Captain D, Norfolk, VA. More information available from US FCC via Universal Licensing System and Coast Guard Vessel Documentation Center.

Last reported at 2018-Jun-23 06:49 UTC. Time now 2018-Jun-24 18:46 UTC.
Position N 40°46' W 073°57'.

Length 27 m; draft 3.7 m.

Type: Tug. MMSI: 367596760.

Date/timePositionNaut miles runAvg speedWind from/ knotsBaromVisibWave heightAir tempDewpointWater temp
2018-Jun-23 06:49N 40°46' W 073°57'2 5.8
2018-Jun-23 06:30N 40°44' W 073°58'3 5.1
2018-Jun-23 06:00N 40°42' W 074°00'2 4.2
2018-Jun-23 05:31N 40°41' W 074°02'1 2.9
2018-Jun-23 05:00N 40°40' W 074°04'2 3.7
2018-Jun-23 04:28N 40°39' W 074°06'2 4.4
2018-Jun-23 04:00N 40°39' W 074°09'2 4.1
2018-Jun-23 03:30N 40°39' W 074°11'1 1.3
2018-Jun-23 02:30N 40°39' W 074°10'2 3.7
2018-Jun-23 01:52N 40°39' W 074°07'1 3.4
2018-Jun-23 01:30N 40°39' W 074°05'2 4.2
2018-Jun-23 01:00N 40°40' W 074°03'3 5.6
2018-Jun-23 00:31N 40°42' W 073°60'3 5.4
2018-Jun-23 00:00N 40°45' W 073°58'3 0.2
2018-Jun-22 06:52N 40°47' W 073°56'2 6.9
2018-Jun-22 06:31N 40°45' W 073°58'3 5.2
2018-Jun-22 06:00N 40°42' W 073°60'3 5.4
2018-Jun-22 05:31N 40°40' W 074°02'2 4.4
2018-Jun-22 05:01N 40°39' W 074°04'3 3.7
2018-Jun-22 04:10N 40°39' W 074°08'2 4.6
2018-Jun-22 03:43N 40°39' W 074°11'1 1.3
2018-Jun-22 02:48N 40°39' W 074°10'1 4.4
2018-Jun-22 02:29N 40°39' W 074°08'2 3.9
2018-Jun-22 02:00N 40°39' W 074°05'2 4.2
2018-Jun-22 01:30N 40°40' W 074°03'3 5.6
2018-Jun-22 01:01N 40°42' W 074°00'3 6.2
2018-Jun-22 00:30N 40°45' W 073°58'1 0.1
2018-Jun-21 05:44N 40°45' W 073°57'2 7.3
2018-Jun-21 05:29N 40°44' W 073°58'3 7.2
2018-Jun-21 05:01N 40°41' W 074°01'3 5.9
2018-Jun-21 04:30N 40°40' W 074°04'2 3.0
2018-Jun-21 03:47N 40°39' W 074°07'1 3.8
2018-Jun-21 03:28N 40°38' W 074°08'2 4.4
2018-Jun-21 02:59N 40°39' W 074°11'1 0.8
2018-Jun-21 01:51N 40°39' W 074°10'2 4.5
2018-Jun-21 01:30N 40°39' W 074°08'2 4.0
2018-Jun-21 01:01N 40°39' W 074°06'2 4.0
2018-Jun-21 00:31N 40°40' W 074°03'3 5.5
2018-Jun-21 00:01N 40°42' W 074°00'3 6.0
2018-Jun-20 23:31N 40°44' W 073°58'2 0.1
2018-Jun-20 06:55N 40°46' W 073°57'3 7.6
2018-Jun-20 06:31N 40°43' W 073°58'4 7.2
2018-Jun-20 06:01N 40°41' W 074°02'3 5.5
2018-Jun-20 05:31N 40°39' W 074°05'5 5.4
2018-Jun-20 04:39N 40°39' W 074°11'1 0.8
2018-Jun-20 03:37N 40°39' W 074°10'1 4.7
2018-Jun-20 03:28N 40°39' W 074°09'3 5.7
2018-Jun-20 03:00N 40°39' W 074°06'3 5.2
2018-Jun-20 02:31N 40°40' W 074°03'2 4.7
2018-Jun-20 02:00N 40°42' W 074°00'3 5.0
2018-Jun-20 01:30N 40°44' W 073°58'3 0.5
2018-Jun-19 17:51N 40°47' W 073°56'2 6.8
2018-Jun-19 17:30N 40°45' W 073°58'3 5.5
2018-Jun-19 17:00N 40°42' W 073°60'3 5.2
2018-Jun-19 16:31N 40°40' W 074°02'2 4.8
2018-Jun-19 16:01N 40°39' W 074°05'3 4.4
2018-Jun-19 15:19N 40°39' W 074°08'2 4.3
2018-Jun-19 14:50N 40°39' W 074°11'1 0.1
2018-Jun-19 00:25N 40°39' W 074°10'2 4.8
2018-Jun-18 23:59N 40°39' W 074°07'2 4.1
2018-Jun-18 23:30N 40°39' W 074°05'2 4.6
2018-Jun-18 23:00N 40°41' W 074°02'3 5.8
2018-Jun-18 22:31N 40°42' W 073°59'3 6.0
2018-Jun-18 22:00N 40°45' W 073°58'0 0.0
2018-Jun-18 16:52N 40°45' W 073°57'2 5.8
2018-Jun-18 16:30N 40°43' W 073°58'3 6.3
2018-Jun-18 16:00N 40°41' W 074°01'3 5.5
2018-Jun-18 15:31N 40°39' W 074°03'3 4.5
2018-Jun-18 14:52N 40°39' W 074°07'3 4.0
2018-Jun-18 14:06N 40°39' W 074°11'0 0.1
2018-Jun-18 08:27N 40°38' W 074°12'0 0.0
2018-Jun-17 12:42N 40°38' W 074°12'2 2.6
2018-Jun-17 12:00N 40°39' W 074°09'3 4.9
2018-Jun-17 11:27N 40°39' W 074°06'2 4.2
2018-Jun-17 11:00N 40°40' W 074°04'3 5.4
2018-Jun-17 10:30N 40°42' W 074°01'3 5.3
2018-Jun-17 10:00N 40°43' W 073°58'3 0.1
2018-Jun-15 16:47N 40°46' W 073°57'1 3.5
2018-Jun-15 16:30N 40°45' W 073°58'2 4.4
2018-Jun-15 16:00N 40°43' W 073°58'3 5.1
2018-Jun-15 15:30N 40°41' W 074°01'3 5.5
2018-Jun-15 15:00N 40°39' W 074°03'3 4.8
2018-Jun-15 14:29N 40°39' W 074°07'3 4.8
2018-Jun-15 13:45N 40°39' W 074°11'0 0.0
2018-Jun-15 09:59N 40°39' W 074°11'2 4.7
2018-Jun-15 09:30N 40°39' W 074°08'2 4.9
2018-Jun-15 09:00N 40°39' W 074°05'2 4.1
2018-Jun-15 08:31N 40°40' W 074°03'3 6.0
2018-Jun-15 08:00N 40°42' W 073°60'3 6.1
2018-Jun-15 07:30N 40°45' W 073°58'1 0.1
2018-Jun-14 22:25N 40°46' W 073°57'2 5.4
2018-Jun-14 22:00N 40°43' W 073°58'3 5.3
2018-Jun-14 21:30N 40°42' W 074°00'2 4.7
2018-Jun-14 21:00N 40°41' W 074°03'2 4.9
2018-Jun-14 20:30N 40°39' W 074°05'2 4.4
2018-Jun-14 20:00N 40°39' W 074°08'2 3.7
2018-Jun-14 19:25N 40°39' W 074°11'0 0.1
2018-Jun-14 11:52N 40°38' W 074°12'1 0.9
2018-Jun-14 10:39N 40°39' W 074°10'0 0.0
2018-Jun-14 08:09N 40°39' W 074°10'1 4.8
2018-Jun-14 07:59N 40°39' W 074°09'2 4.1
2018-Jun-14 07:30N 40°39' W 074°06'2 3.7
2018-Jun-14 07:00N 40°40' W 074°04'3 5.1
2018-Jun-14 06:30N 40°41' W 074°01'3 6.7
2018-Jun-14 06:00N 40°43' W 073°58'2 0.3
2018-Jun-13 21:39N 40°46' W 073°57'1 8.0
2018-Jun-13 21:30N 40°45' W 073°58'3 6.7
2018-Jun-13 21:00N 40°42' W 074°00'3 5.5
2018-Jun-13 20:30N 40°40' W 074°03'2 4.1
2018-Jun-13 20:00N 40°39' W 074°05'2 4.8
2018-Jun-13 19:30N 40°38' W 074°08'1 0.1
2018-Jun-13 08:16N 40°39' W 074°10'1 4.7
2018-Jun-13 08:00N 40°39' W 074°09'3 5.1
2018-Jun-13 07:30N 40°39' W 074°05'1 2.8
2018-Jun-13 07:00N 40°40' W 074°04'  
Track history (hours):
 
Tides and Currents Weather Stations Pressure Air Temp Water Temp Dewpoint Dewpoint Depression Visibility Wind Speed Wind Dir Waves Ship Positions

Captain D

Owner: Gilmerton Tugs LLC/Captain D, Norfolk, VA. More information available from US FCC via Universal Licensing System and Coast Guard Vessel Documentation Center.

Last reported at 2018-Jun-23 06:49 UTC. Time now 2018-Jun-24 18:46 UTC.
Position N 40°46' W 073°57'.

Length 27 m; draft 3.7 m.

Type: Tug. MMSI: 367596760.

Date/timePositionNaut miles runAvg speedWind from/ knotsBaromVisibWave heightAir tempDewpointWater temp
2018-Jun-23 06:49N 40°46' W 073°57'2 5.8
2018-Jun-23 06:30N 40°44' W 073°58'3 5.1
2018-Jun-23 06:00N 40°42' W 074°00'2 4.2
2018-Jun-23 05:31N 40°41' W 074°02'1 2.9
2018-Jun-23 05:00N 40°40' W 074°04'2 3.7
2018-Jun-23 04:28N 40°39' W 074°06'2 4.4
2018-Jun-23 04:00N 40°39' W 074°09'2 4.1
2018-Jun-23 03:30N 40°39' W 074°11'1 1.3
2018-Jun-23 02:30N 40°39' W 074°10'2 3.7
2018-Jun-23 01:52N 40°39' W 074°07'1 3.4
2018-Jun-23 01:30N 40°39' W 074°05'2 4.2
2018-Jun-23 01:00N 40°40' W 074°03'3 5.6
2018-Jun-23 00:31N 40°42' W 073°60'3 5.4
2018-Jun-23 00:00N 40°45' W 073°58'3 0.2
2018-Jun-22 06:52N 40°47' W 073°56'2 6.9
2018-Jun-22 06:31N 40°45' W 073°58'3 5.2
2018-Jun-22 06:00N 40°42' W 073°60'3 5.4
2018-Jun-22 05:31N 40°40' W 074°02'2 4.4
2018-Jun-22 05:01N 40°39' W 074°04'3 3.7
2018-Jun-22 04:10N 40°39' W 074°08'2 4.6
2018-Jun-22 03:43N 40°39' W 074°11'1 1.3
2018-Jun-22 02:48N 40°39' W 074°10'1 4.4
2018-Jun-22 02:29N 40°39' W 074°08'2 3.9
2018-Jun-22 02:00N 40°39' W 074°05'2 4.2
2018-Jun-22 01:30N 40°40' W 074°03'3 5.6
2018-Jun-22 01:01N 40°42' W 074°00'3 6.2
2018-Jun-22 00:30N 40°45' W 073°58'1 0.1
2018-Jun-21 05:44N 40°45' W 073°57'2 7.3
2018-Jun-21 05:29N 40°44' W 073°58'3 7.2
2018-Jun-21 05:01N 40°41' W 074°01'3 5.9
2018-Jun-21 04:30N 40°40' W 074°04'2 3.0
2018-Jun-21 03:47N 40°39' W 074°07'1 3.8
2018-Jun-21 03:28N 40°38' W 074°08'2 4.4
2018-Jun-21 02:59N 40°39' W 074°11'1 0.8
2018-Jun-21 01:51N 40°39' W 074°10'2 4.5
2018-Jun-21 01:30N 40°39' W 074°08'2 4.0
2018-Jun-21 01:01N 40°39' W 074°06'2 4.0
2018-Jun-21 00:31N 40°40' W 074°03'3 5.5
2018-Jun-21 00:01N 40°42' W 074°00'3 6.0
2018-Jun-20 23:31N 40°44' W 073°58'2 0.1
2018-Jun-20 06:55N 40°46' W 073°57'3 7.6
2018-Jun-20 06:31N 40°43' W 073°58'4 7.2
2018-Jun-20 06:01N 40°41' W 074°02'3 5.5
2018-Jun-20 05:31N 40°39' W 074°05'5 5.4
2018-Jun-20 04:39N 40°39' W 074°11'1 0.8
2018-Jun-20 03:37N 40°39' W 074°10'1 4.7
2018-Jun-20 03:28N 40°39' W 074°09'3 5.7
2018-Jun-20 03:00N 40°39' W 074°06'3 5.2
2018-Jun-20 02:31N 40°40' W 074°03'2 4.7
2018-Jun-20 02:00N 40°42' W 074°00'3 5.0
2018-Jun-20 01:30N 40°44' W 073°58'3 0.5
2018-Jun-19 17:51N 40°47' W 073°56'2 6.8
2018-Jun-19 17:30N 40°45' W 073°58'3 5.5
2018-Jun-19 17:00N 40°42' W 073°60'3 5.2
2018-Jun-19 16:31N 40°40' W 074°02'2 4.8
2018-Jun-19 16:01N 40°39' W 074°05'3 4.4
2018-Jun-19 15:19N 40°39' W 074°08'2 4.3
2018-Jun-19 14:50N 40°39' W 074°11'1 0.1
2018-Jun-19 00:25N 40°39' W 074°10'2 4.8
2018-Jun-18 23:59N 40°39' W 074°07'2 4.1
2018-Jun-18 23:30N 40°39' W 074°05'2 4.6
2018-Jun-18 23:00N 40°41' W 074°02'3 5.8
2018-Jun-18 22:31N 40°42' W 073°59'3 6.0
2018-Jun-18 22:00N 40°45' W 073°58'0 0.0
2018-Jun-18 16:52N 40°45' W 073°57'2 5.8
2018-Jun-18 16:30N 40°43' W 073°58'3 6.3
2018-Jun-18 16:00N 40°41' W 074°01'3 5.5
2018-Jun-18 15:31N 40°39' W 074°03'3 4.5
2018-Jun-18 14:52N 40°39' W 074°07'3 4.0
2018-Jun-18 14:06N 40°39' W 074°11'0 0.1
2018-Jun-18 08:27N 40°38' W 074°12'0 0.0
2018-Jun-17 12:42N 40°38' W 074°12'2 2.6
2018-Jun-17 12:00N 40°39' W 074°09'3 4.9
2018-Jun-17 11:27N 40°39' W 074°06'2 4.2
2018-Jun-17 11:00N 40°40' W 074°04'3 5.4
2018-Jun-17 10:30N 40°42' W 074°01'3 5.3
2018-Jun-17 10:00N 40°43' W 073°58'3 0.1
2018-Jun-15 16:47N 40°46' W 073°57'1 3.5
2018-Jun-15 16:30N 40°45' W 073°58'2 4.4
2018-Jun-15 16:00N 40°43' W 073°58'3 5.1
2018-Jun-15 15:30N 40°41' W 074°01'3 5.5
2018-Jun-15 15:00N 40°39' W 074°03'3 4.8
2018-Jun-15 14:29N 40°39' W 074°07'3 4.8
2018-Jun-15 13:45N 40°39' W 074°11'0 0.0
2018-Jun-15 09:59N 40°39' W 074°11'2 4.7
2018-Jun-15 09:30N 40°39' W 074°08'2 4.9
2018-Jun-15 09:00N 40°39' W 074°05'2 4.1
2018-Jun-15 08:31N 40°40' W 074°03'3 6.0
2018-Jun-15 08:00N 40°42' W 073°60'3 6.1
2018-Jun-15 07:30N 40°45' W 073°58'1 0.1
2018-Jun-14 22:25N 40°46' W 073°57'2 5.4
2018-Jun-14 22:00N 40°43' W 073°58'3 5.3
2018-Jun-14 21:30N 40°42' W 074°00'2 4.7
2018-Jun-14 21:00N 40°41' W 074°03'2 4.9
2018-Jun-14 20:30N 40°39' W 074°05'2 4.4
2018-Jun-14 20:00N 40°39' W 074°08'2 3.7
2018-Jun-14 19:25N 40°39' W 074°11'0 0.1
2018-Jun-14 11:52N 40°38' W 074°12'1 0.9
2018-Jun-14 10:39N 40°39' W 074°10'0 0.0
2018-Jun-14 08:09N 40°39' W 074°10'1 4.8
2018-Jun-14 07:59N 40°39' W 074°09'2 4.1
2018-Jun-14 07:30N 40°39' W 074°06'2 3.7
2018-Jun-14 07:00N 40°40' W 074°04'3 5.1
2018-Jun-14 06:30N 40°41' W 074°01'3 6.7
2018-Jun-14 06:00N 40°43' W 073°58'2 0.3
2018-Jun-13 21:39N 40°46' W 073°57'1 8.0
2018-Jun-13 21:30N 40°45' W 073°58'3 6.7
2018-Jun-13 21:00N 40°42' W 074°00'3 5.5
2018-Jun-13 20:30N 40°40' W 074°03'2 4.1
2018-Jun-13 20:00N 40°39' W 074°05'2 4.8
2018-Jun-13 19:30N 40°38' W 074°08'1 0.1
2018-Jun-13 08:16N 40°39' W 074°10'1 4.7
2018-Jun-13 08:00N 40°39' W 074°09'3 5.1
2018-Jun-13 07:30N 40°39' W 074°05'1 2.8
2018-Jun-13 07:00N 40°40' W 074°04'  

Dump ship's entire track history